sensor_id;sensor_type;location;lat;lon;timestamp;pressure;altitude;pressure_sealevel;temperature;humidity
78667;BME280;67983;59.830;30.198;2023-06-26T12:01:56;101495.16;;;20.12;65.75
78667;BME280;67983;59.830;30.198;2023-06-26T12:06:46;101477.00;;;20.05;68.08
78667;BME280;67983;59.830;30.198;2023-06-26T12:09:14;101451.34;;;19.91;68.56
78667;BME280;67983;59.830;30.198;2023-06-26T12:11:43;101403.19;;;19.78;68.80
78667;BME280;67983;59.830;30.198;2023-06-26T12:14:16;101379.09;;;19.57;69.58
78667;BME280;67983;59.830;30.198;2023-06-26T12:16:45;101374.72;;;19.37;70.32
78667;BME280;67983;59.830;30.198;2023-06-26T12:19:13;101371.59;;;19.22;71.36
78667;BME280;67983;59.830;30.198;2023-06-26T12:21:47;101365.38;;;19.22;71.57
78667;BME280;67983;59.830;30.198;2023-06-26T12:24:20;101352.78;;;19.32;71.46
78667;BME280;67983;59.830;30.198;2023-06-26T12:26:52;101347.09;;;19.35;71.79
78667;BME280;67983;59.830;30.198;2023-06-26T12:29:29;101343.97;;;19.39;71.72
78667;BME280;67983;59.830;30.198;2023-06-26T12:31:58;101346.81;;;19.48;72.01
78667;BME280;67983;59.830;30.198;2023-06-26T12:34:27;101362.53;;;19.62;72.15
78667;BME280;67983;59.830;30.198;2023-06-26T12:37:01;101366.59;;;19.76;72.36
78667;BME280;67983;59.830;30.198;2023-06-26T12:39:29;101373.38;;;19.89;72.52
78667;BME280;67983;59.830;30.198;2023-06-26T12:41:59;101380.00;;;20.05;72.62
78667;BME280;67983;59.830;30.198;2023-06-26T12:44:27;101377.69;;;20.19;72.55
78667;BME280;67983;59.830;30.198;2023-06-26T12:46:57;101373.50;;;20.35;72.90
78667;BME280;67983;59.830;30.198;2023-06-26T12:49:30;101370.78;;;20.54;72.99
78667;BME280;67983;59.830;30.198;2023-06-26T12:52:04;101367.34;;;20.79;73.24
78667;BME280;67983;59.830;30.198;2023-06-26T12:54:33;101360.69;;;21.01;73.35
78667;BME280;67983;59.830;30.198;2023-06-26T12:57:00;101367.00;;;21.10;73.01
78667;BME280;67983;59.830;30.198;2023-06-26T12:59:29;101347.78;;;21.13;72.81
78667;BME280;67983;59.830;30.198;2023-06-26T13:01:56;101343.00;;;21.07;72.86
78667;BME280;67983;59.830;30.198;2023-06-26T13:04:23;101338.25;;;21.01;72.86
78667;BME280;67983;59.830;30.198;2023-06-26T13:06:51;101345.50;;;21.00;72.97
78667;BME280;67983;59.830;30.198;2023-06-26T13:09:22;101347.47;;;20.98;73.02
78667;BME280;67983;59.830;30.198;2023-06-26T13:11:51;101353.03;;;20.97;73.08
78667;BME280;67983;59.830;30.198;2023-06-26T13:14:18;101348.47;;;20.97;73.33
78667;BME280;67983;59.830;30.198;2023-06-26T13:16:47;101351.91;;;20.99;73.43
78667;BME280;67983;59.830;30.198;2023-06-26T13:19:14;101340.25;;;20.99;73.00
78667;BME280;67983;59.830;30.198;2023-06-26T13:21:44;101336.69;;;20.98;73.02
78667;BME280;67983;59.830;30.198;2023-06-26T13:24:12;101338.94;;;21.03;73.11
78667;BME280;67983;59.830;30.198;2023-06-26T13:26:41;101339.31;;;21.08;72.91
78667;BME280;67983;59.830;30.198;2023-06-26T13:29:09;101344.00;;;21.24;73.12
78667;BME280;67983;59.830;30.198;2023-06-26T13:31:36;101346.56;;;21.43;73.34
78667;BME280;67983;59.830;30.198;2023-06-26T13:34:04;101340.72;;;21.73;73.23
78667;BME280;67983;59.830;30.198;2023-06-26T13:36:33;101343.53;;;22.16;72.86
78667;BME280;67983;59.830;30.198;2023-06-26T13:39:01;101337.63;;;22.62;72.38
78667;BME280;67983;59.830;30.198;2023-06-26T13:41:32;101324.72;;;22.90;71.92
78667;BME280;67983;59.830;30.198;2023-06-26T13:44:00;101333.34;;;23.10;71.78
78667;BME280;67983;59.830;30.198;2023-06-26T13:46:28;101328.81;;;23.19;71.31
78667;BME280;67983;59.830;30.198;2023-06-26T13:48:56;101323.88;;;23.39;70.80
78667;BME280;67983;59.830;30.198;2023-06-26T13:51:25;101323.38;;;23.51;70.01
78667;BME280;67983;59.830;30.198;2023-06-26T13:53:52;101331.34;;;23.45;69.69
78667;BME280;67983;59.830;30.198;2023-06-26T13:56:21;101329.50;;;23.29;69.49
78667;BME280;67983;59.830;30.198;2023-06-26T13:58:50;101325.91;;;23.12;69.53
78667;BME280;67983;59.830;30.198;2023-06-26T14:01:19;101323.34;;;22.94;69.35
78667;BME280;67983;59.830;30.198;2023-06-26T14:03:46;101327.88;;;22.78;69.39
78667;BME280;67983;59.830;30.198;2023-06-26T14:06:16;101330.69;;;22.60;69.91
78667;BME280;67983;59.830;30.198;2023-06-26T14:08:45;101327.09;;;22.43;69.96
78667;BME280;67983;59.830;30.198;2023-06-26T14:11:12;101310.13;;;22.25;69.88
78667;BME280;67983;59.830;30.198;2023-06-26T14:13:42;101319.00;;;22.09;70.06
78667;BME280;67983;59.830;30.198;2023-06-26T14:16:09;101309.44;;;21.97;70.21
78667;BME280;67983;59.830;30.198;2023-06-26T14:18:39;101305.50;;;21.83;70.25
78667;BME280;67983;59.830;30.198;2023-06-26T14:21:06;101305.59;;;21.73;70.51
78667;BME280;67983;59.830;30.198;2023-06-26T14:23:33;101309.25;;;21.64;70.50
78667;BME280;67983;59.830;30.198;2023-06-26T14:26:01;101306.50;;;21.56;70.70
78667;BME280;67983;59.830;30.198;2023-06-26T14:28:29;101314.22;;;21.51;71.01
78667;BME280;67983;59.830;30.198;2023-06-26T14:30:56;101312.53;;;21.50;71.08
78667;BME280;67983;59.830;30.198;2023-06-26T14:33:26;101298.72;;;21.53;71.16
78667;BME280;67983;59.830;30.198;2023-06-26T14:35:55;101296.38;;;21.58;71.27
78667;BME280;67983;59.830;30.198;2023-06-26T14:38:22;101289.34;;;21.65;71.21
78667;BME280;67983;59.830;30.198;2023-06-26T14:40:49;101292.94;;;21.74;71.19
78667;BME280;67983;59.830;30.198;2023-06-26T14:43:17;101295.84;;;21.81;70.95
78667;BME280;67983;59.830;30.198;2023-06-26T14:45:44;101294.69;;;21.83;70.91
78667;BME280;67983;59.830;30.198;2023-06-26T14:48:13;101291.50;;;21.88;70.87
78667;BME280;67983;59.830;30.198;2023-06-26T14:50:41;101280.22;;;21.92;71.07
78667;BME280;67983;59.830;30.198;2023-06-26T14:53:10;101287.16;;;21.95;70.97
78667;BME280;67983;59.830;30.198;2023-06-26T14:55:39;101287.00;;;21.96;70.72
78667;BME280;67983;59.830;30.198;2023-06-26T14:58:07;101286.16;;;21.96;70.68
78667;BME280;67983;59.830;30.198;2023-06-26T15:00:34;101295.44;;;21.93;70.72
78667;BME280;67983;59.830;30.198;2023-06-26T15:03:04;101286.78;;;21.90;70.81
78667;BME280;67983;59.830;30.198;2023-06-26T15:05:33;101282.88;;;21.84;70.55
78667;BME280;67983;59.830;30.198;2023-06-26T15:08:00;101281.66;;;21.78;70.80
78667;BME280;67983;59.830;30.198;2023-06-26T15:10:30;101282.97;;;21.74;70.93
78667;BME280;67983;59.830;30.198;2023-06-26T15:12:57;101278.75;;;21.72;71.24
78667;BME280;67983;59.830;30.198;2023-06-26T15:15:24;101274.66;;;21.68;71.28
78667;BME280;67983;59.830;30.198;2023-06-26T15:17:52;101271.81;;;21.69;71.59
78667;BME280;67983;59.830;30.198;2023-06-26T15:20:19;101269.94;;;21.70;71.72
78667;BME280;67983;59.830;30.198;2023-06-26T15:22:46;101267.94;;;21.72;71.64
78667;BME280;67983;59.830;30.198;2023-06-26T15:25:16;101274.03;;;21.74;71.80
78667;BME280;67983;59.830;30.198;2023-06-26T15:27:47;101266.75;;;21.74;71.78
78667;BME280;67983;59.830;30.198;2023-06-26T15:30:15;101267.63;;;21.75;71.81
78667;BME280;67983;59.830;30.198;2023-06-26T15:32:44;101262.91;;;21.77;71.79
78667;BME280;67983;59.830;30.198;2023-06-26T15:35:13;101274.72;;;21.76;71.77
78667;BME280;67983;59.830;30.198;2023-06-26T15:37:43;101263.38;;;21.72;71.67
78667;BME280;67983;59.830;30.198;2023-06-26T15:40:11;101258.81;;;21.73;71.83
78667;BME280;67983;59.830;30.198;2023-06-26T15:42:50;101261.34;;;21.74;71.90
78667;BME280;67983;59.830;30.198;2023-06-26T15:45:22;101268.31;;;21.77;72.06
78667;BME280;67983;59.830;30.198;2023-06-26T15:47:53;101257.34;;;21.78;72.09
78667;BME280;67983;59.830;30.198;2023-06-26T15:50:20;101260.56;;;21.82;72.00
78667;BME280;67983;59.830;30.198;2023-06-26T15:52:49;101255.69;;;21.86;72.17
78667;BME280;67983;59.830;30.198;2023-06-26T15:55:17;101256.91;;;21.91;71.82
78667;BME280;67983;59.830;30.198;2023-06-26T15:57:45;101260.81;;;21.97;71.96
78667;BME280;67983;59.830;30.198;2023-06-26T16:00:18;101264.63;;;22.12;72.08
78667;BME280;67983;59.830;30.198;2023-06-26T16:02:46;101266.88;;;22.33;71.93
78667;BME280;67983;59.830;30.198;2023-06-26T16:05:14;101279.38;;;23.09;71.59
78667;BME280;67983;59.830;30.198;2023-06-26T16:07:45;101279.13;;;24.39;70.39
78667;BME280;67983;59.830;30.198;2023-06-26T16:10:13;101274.81;;;26.18;68.08
78667;BME280;67983;59.830;30.198;2023-06-26T16:12:42;101279.41;;;27.82;66.20
78667;BME280;67983;59.830;30.198;2023-06-26T16:15:12;101276.56;;;28.44;64.25
78667;BME280;67983;59.830;30.198;2023-06-26T16:17:40;101279.66;;;29.35;62.25
78667;BME280;67983;59.830;30.198;2023-06-26T16:20:08;101276.31;;;30.38;59.91
78667;BME280;67983;59.830;30.198;2023-06-26T16:22:39;101285.34;;;31.39;57.92
78667;BME280;67983;59.830;30.198;2023-06-26T16:25:07;101275.28;;;32.01;55.58
78667;BME280;67983;59.830;30.198;2023-06-26T16:27:37;101279.88;;;32.86;53.74
78667;BME280;67983;59.830;30.198;2023-06-26T16:30:08;101276.72;;;33.82;50.90
78667;BME280;67983;59.830;30.198;2023-06-26T16:32:36;101280.72;;;34.27;50.21
78667;BME280;67983;59.830;30.198;2023-06-26T16:35:06;101277.38;;;34.36;49.14
78667;BME280;67983;59.830;30.198;2023-06-26T16:37:34;101283.75;;;35.11;47.83
78667;BME280;67983;59.830;30.198;2023-06-26T16:40:04;101284.34;;;35.46;47.10
78667;BME280;67983;59.830;30.198;2023-06-26T16:42:33;101288.84;;;34.73;47.17
78667;BME280;67983;59.830;30.198;2023-06-26T16:45:03;101288.41;;;34.93;45.39
78667;BME280;67983;59.830;30.198;2023-06-26T16:47:31;101286.31;;;35.68;44.10
78667;BME280;67983;59.830;30.198;2023-06-26T16:49:59;101284.53;;;35.40;43.67
78667;BME280;67983;59.830;30.198;2023-06-26T16:52:30;101279.38;;;35.65;43.26
78667;BME280;67983;59.830;30.198;2023-06-26T16:54:57;101285.41;;;36.22;41.93
78667;BME280;67983;59.830;30.198;2023-06-26T16:57:26;101280.41;;;36.68;40.23
78667;BME280;67983;59.830;30.198;2023-06-26T16:59:54;101286.75;;;36.91;40.21
78667;BME280;67983;59.830;30.198;2023-06-26T17:02:22;101281.72;;;36.61;40.21
78667;BME280;67983;59.830;30.198;2023-06-26T17:04:49;101283.97;;;36.37;40.68
78667;BME280;67983;59.830;30.198;2023-06-26T17:07:19;101285.59;;;35.94;40.41
78667;BME280;67983;59.830;30.198;2023-06-26T17:09:47;101285.44;;;35.45;41.18
78667;BME280;67983;59.830;30.198;2023-06-26T17:12:15;101285.66;;;34.65;41.02
78667;BME280;67983;59.830;30.198;2023-06-26T17:14:44;101277.00;;;33.93;41.69
78667;BME280;67983;59.830;30.198;2023-06-26T17:17:12;101276.66;;;33.42;42.43
78667;BME280;67983;59.830;30.198;2023-06-26T17:19:43;101276.81;;;32.76;43.35
78667;BME280;67983;59.830;30.198;2023-06-26T17:22:14;101270.28;;;32.10;44.70
78667;BME280;67983;59.830;30.198;2023-06-26T17:24:42;101271.94;;;31.56;45.35
78667;BME280;67983;59.830;30.198;2023-06-26T17:27:12;101272.66;;;30.88;45.88
78667;BME280;67983;59.830;30.198;2023-06-26T17:29:43;101269.94;;;30.06;47.49
78667;BME280;67983;59.830;30.198;2023-06-26T17:32:10;101278.22;;;29.26;48.61
78667;BME280;67983;59.830;30.198;2023-06-26T17:34:39;101275.97;;;28.55;49.62
78667;BME280;67983;59.830;30.198;2023-06-26T17:37:06;101278.03;;;27.99;51.00
78667;BME280;67983;59.830;30.198;2023-06-26T17:39:34;101274.34;;;27.51;52.10
78667;BME280;67983;59.830;30.198;2023-06-26T17:42:05;101274.03;;;27.11;53.47
78667;BME280;67983;59.830;30.198;2023-06-26T17:44:34;101272.13;;;26.69;53.90
78667;BME280;67983;59.830;30.198;2023-06-26T17:47:02;101270.03;;;26.35;54.60
78667;BME280;67983;59.830;30.198;2023-06-26T17:49:33;101266.13;;;26.08;54.76
78667;BME280;67983;59.830;30.198;2023-06-26T17:52:00;101271.47;;;25.86;54.34
78667;BME280;67983;59.830;30.198;2023-06-26T17:54:28;101261.13;;;25.67;54.92
78667;BME280;67983;59.830;30.198;2023-06-26T17:56:57;101264.59;;;25.46;54.96
78667;BME280;67983;59.830;30.198;2023-06-26T17:59:27;101265.47;;;25.24;55.10
78667;BME280;67983;59.830;30.198;2023-06-26T18:01:56;101265.00;;;24.97;56.00
78667;BME280;67983;59.830;30.198;2023-06-26T18:04:28;101257.88;;;24.73;56.22
78667;BME280;67983;59.830;30.198;2023-06-26T18:06:55;101259.56;;;24.52;56.93
78667;BME280;67983;59.830;30.198;2023-06-26T18:09:25;101263.06;;;24.29;56.84
78667;BME280;67983;59.830;30.198;2023-06-26T18:11:57;101262.13;;;24.06;57.65
78667;BME280;67983;59.830;30.198;2023-06-26T18:14:24;101258.47;;;23.82;58.38
78667;BME280;67983;59.830;30.198;2023-06-26T18:16:51;101256.53;;;23.60;58.88
78667;BME280;67983;59.830;30.198;2023-06-26T18:19:21;101260.56;;;23.40;59.41
78667;BME280;67983;59.830;30.198;2023-06-26T18:21:49;101264.16;;;23.24;60.06
78667;BME280;67983;59.830;30.198;2023-06-26T18:24:17;101268.38;;;23.10;60.25
78667;BME280;67983;59.830;30.198;2023-06-26T18:26:45;101265.34;;;22.97;60.59
78667;BME280;67983;59.830;30.198;2023-06-26T18:29:12;101267.72;;;22.84;61.24
78667;BME280;67983;59.830;30.198;2023-06-26T18:31:40;101259.03;;;22.72;62.38
78667;BME280;67983;59.830;30.198;2023-06-26T18:34:07;101252.25;;;22.60;62.86
78667;BME280;67983;59.830;30.198;2023-06-26T18:36:39;101253.56;;;22.48;63.22
78667;BME280;67983;59.830;30.198;2023-06-26T18:39:11;101249.47;;;22.35;63.67
78667;BME280;67983;59.830;30.198;2023-06-26T18:41:39;101249.13;;;22.22;63.82
78667;BME280;67983;59.830;30.198;2023-06-26T18:44:06;101255.00;;;22.10;63.80
78667;BME280;67983;59.830;30.198;2023-06-26T18:46:34;101249.00;;;21.98;64.02
78667;BME280;67983;59.830;30.198;2023-06-26T18:49:02;101252.97;;;21.86;64.23
78667;BME280;67983;59.830;30.198;2023-06-26T18:51:35;101253.41;;;21.73;64.97
78667;BME280;67983;59.830;30.198;2023-06-26T18:54:09;101251.47;;;21.57;65.39
78667;BME280;67983;59.830;30.198;2023-06-26T18:56:36;101253.47;;;21.47;65.43
78667;BME280;67983;59.830;30.198;2023-06-26T18:59:03;101256.41;;;21.36;65.78
78667;BME280;67983;59.830;30.198;2023-06-26T19:01:31;101262.91;;;21.25;65.89
78667;BME280;67983;59.830;30.198;2023-06-26T19:04:00;101258.28;;;21.17;66.76
78667;BME280;67983;59.830;30.198;2023-06-26T19:06:33;101259.19;;;21.08;66.82
78667;BME280;67983;59.830;30.198;2023-06-26T19:09:02;101253.03;;;20.98;67.16
78667;BME280;67983;59.830;30.198;2023-06-26T19:11:38;101256.00;;;20.87;67.41
78667;BME280;67983;59.830;30.198;2023-06-26T19:14:09;101252.50;;;20.77;67.91
78667;BME280;67983;59.830;30.198;2023-06-26T19:16:41;101255.28;;;20.67;68.37
78667;BME280;67983;59.830;30.198;2023-06-26T19:19:10;101257.91;;;20.59;68.49
78667;BME280;67983;59.830;30.198;2023-06-26T19:21:39;101255.13;;;20.51;68.91
78667;BME280;67983;59.830;30.198;2023-06-26T19:24:07;101248.66;;;20.44;69.04
78667;BME280;67983;59.830;30.198;2023-06-26T19:26:35;101256.59;;;20.36;69.15
78667;BME280;67983;59.830;30.198;2023-06-26T19:29:07;101257.22;;;20.29;69.41
78667;BME280;67983;59.830;30.198;2023-06-26T19:31:37;101257.13;;;20.21;69.51
78667;BME280;67983;59.830;30.198;2023-06-26T19:34:04;101256.88;;;20.15;69.67
78667;BME280;67983;59.830;30.198;2023-06-26T19:36:31;101254.78;;;20.09;69.79
78667;BME280;67983;59.830;30.198;2023-06-26T19:39:02;101259.06;;;20.02;69.79
78667;BME280;67983;59.830;30.198;2023-06-26T19:41:32;101254.28;;;19.95;70.56
78667;BME280;67983;59.830;30.198;2023-06-26T19:44:02;101259.41;;;19.89;70.65
78667;BME280;67983;59.830;30.198;2023-06-26T19:46:32;101248.38;;;19.82;70.75
78667;BME280;67983;59.830;30.198;2023-06-26T19:48:59;101251.69;;;19.76;70.96
78667;BME280;67983;59.830;30.198;2023-06-26T19:51:30;101260.19;;;19.72;71.15
78667;BME280;67983;59.830;30.198;2023-06-26T19:54:03;101241.50;;;19.60;71.77
78667;BME280;67983;59.830;30.198;2023-06-26T19:56:32;101248.63;;;19.61;71.68
78667;BME280;67983;59.830;30.198;2023-06-26T19:59:04;101252.56;;;19.57;72.02
78667;BME280;67983;59.830;30.198;2023-06-26T20:01:32;101244.06;;;19.52;71.84
78667;BME280;67983;59.830;30.198;2023-06-26T20:04:00;101247.22;;;19.48;72.18
78667;BME280;67983;59.830;30.198;2023-06-26T20:06:29;101244.94;;;19.43;72.21
78667;BME280;67983;59.830;30.198;2023-06-26T20:09:02;101240.00;;;19.38;72.42
78667;BME280;67983;59.830;30.198;2023-06-26T20:11:34;101241.44;;;19.33;72.41
78667;BME280;67983;59.830;30.198;2023-06-26T20:14:03;101237.31;;;19.29;72.36
78667;BME280;67983;59.830;30.198;2023-06-26T20:16:31;101237.75;;;19.24;72.59
78667;BME280;67983;59.830;30.198;2023-06-26T20:18:58;101246.13;;;19.21;72.72
78667;BME280;67983;59.830;30.198;2023-06-26T20:21:26;101247.28;;;19.19;73.02
78667;BME280;67983;59.830;30.198;2023-06-26T20:23:53;101240.34;;;19.16;73.12
78667;BME280;67983;59.830;30.198;2023-06-26T20:26:23;101245.00;;;19.14;73.04
78667;BME280;67983;59.830;30.198;2023-06-26T20:28:51;101241.75;;;19.10;73.18
78667;BME280;67983;59.830;30.198;2023-06-26T20:31:18;101247.41;;;19.07;73.14
78667;BME280;67983;59.830;30.198;2023-06-26T20:33:47;101243.19;;;19.05;73.20
78667;BME280;67983;59.830;30.198;2023-06-26T20:36:14;101241.63;;;19.02;73.22
78667;BME280;67983;59.830;30.198;2023-06-26T20:38:43;101241.91;;;18.99;73.37
78667;BME280;67983;59.830;30.198;2023-06-26T20:41:16;101244.88;;;18.96;73.39
78667;BME280;67983;59.830;30.198;2023-06-26T20:43:44;101241.34;;;18.96;73.03
78667;BME280;67983;59.830;30.198;2023-06-26T20:46:13;101238.09;;;18.92;73.39
78667;BME280;67983;59.830;30.198;2023-06-26T20:48:48;101240.06;;;18.90;73.18
78667;BME280;67983;59.830;30.198;2023-06-26T20:51:15;101239.53;;;18.87;73.37
78667;BME280;67983;59.830;30.198;2023-06-26T20:53:49;101240.78;;;18.83;73.22
78667;BME280;67983;59.830;30.198;2023-06-26T20:56:18;101235.69;;;18.79;73.13
78667;BME280;67983;59.830;30.198;2023-06-26T20:58:45;101236.97;;;18.75;73.33
78667;BME280;67983;59.830;30.198;2023-06-26T21:01:12;101234.72;;;18.71;73.71
78667;BME280;67983;59.830;30.198;2023-06-26T21:03:39;101232.28;;;18.68;73.85
78667;BME280;67983;59.830;30.198;2023-06-26T21:06:09;101231.44;;;18.67;74.06
78667;BME280;67983;59.830;30.198;2023-06-26T21:08:39;101234.50;;;18.63;73.85
78667;BME280;67983;59.830;30.198;2023-06-26T21:11:07;101229.28;;;18.61;74.22
78667;BME280;67983;59.830;30.198;2023-06-26T21:13:33;101226.75;;;18.60;74.08
78667;BME280;67983;59.830;30.198;2023-06-26T21:16:01;101226.88;;;18.58;74.07
78667;BME280;67983;59.830;30.198;2023-06-26T21:18:29;101227.03;;;18.57;74.10
78667;BME280;67983;59.830;30.198;2023-06-26T21:20:56;101220.94;;;18.55;74.31
78667;BME280;67983;59.830;30.198;2023-06-26T21:23:27;101225.47;;;18.54;74.58
78667;BME280;67983;59.830;30.198;2023-06-26T21:25:54;101227.31;;;18.54;74.55
78667;BME280;67983;59.830;30.198;2023-06-26T21:28:22;101223.03;;;18.51;74.44
78667;BME280;67983;59.830;30.198;2023-06-26T21:30:49;101225.03;;;18.49;74.45
78667;BME280;67983;59.830;30.198;2023-06-26T21:33:17;101234.06;;;18.48;74.29
78667;BME280;67983;59.830;30.198;2023-06-26T21:35:47;101230.69;;;18.46;74.34
78667;BME280;67983;59.830;30.198;2023-06-26T21:38:15;101237.19;;;18.43;74.30
78667;BME280;67983;59.830;30.198;2023-06-26T21:40:45;101238.19;;;18.42;74.73
78667;BME280;67983;59.830;30.198;2023-06-26T21:43:12;101232.09;;;18.40;74.36
78667;BME280;67983;59.830;30.198;2023-06-26T21:45:41;101226.97;;;18.37;74.83
78667;BME280;67983;59.830;30.198;2023-06-26T21:48:09;101231.66;;;18.35;74.90
78667;BME280;67983;59.830;30.198;2023-06-26T21:50:37;101234.34;;;18.35;74.91
78667;BME280;67983;59.830;30.198;2023-06-26T21:53:05;101222.75;;;18.35;74.89
78667;BME280;67983;59.830;30.198;2023-06-26T21:55:33;101232.63;;;18.34;75.30
78667;BME280;67983;59.830;30.198;2023-06-26T21:58:01;101231.94;;;18.32;75.29
78667;BME280;67983;59.830;30.198;2023-06-26T22:00:28;101235.63;;;18.31;75.24
78667;BME280;67983;59.830;30.198;2023-06-26T22:02:55;101233.06;;;18.30;75.23
78667;BME280;67983;59.830;30.198;2023-06-26T22:05:25;101240.28;;;18.29;75.31
78667;BME280;67983;59.830;30.198;2023-06-26T22:07:52;101241.13;;;18.30;75.35
78667;BME280;67983;59.830;30.198;2023-06-26T22:10:20;101239.44;;;18.29;75.45
78667;BME280;67983;59.830;30.198;2023-06-26T22:12:47;101238.59;;;18.28;75.39
78667;BME280;67983;59.830;30.198;2023-06-26T22:15:15;101237.72;;;18.28;75.58
78667;BME280;67983;59.830;30.198;2023-06-26T22:17:48;101240.41;;;18.28;75.45
78667;BME280;67983;59.830;30.198;2023-06-26T22:20:16;101241.28;;;18.28;75.43
78667;BME280;67983;59.830;30.198;2023-06-26T22:22:43;101240.56;;;18.26;75.54
78667;BME280;67983;59.830;30.198;2023-06-26T22:25:10;101232.78;;;18.23;75.62
78667;BME280;67983;59.830;30.198;2023-06-26T22:27:37;101239.25;;;18.20;75.40
78667;BME280;67983;59.830;30.198;2023-06-26T22:30:05;101239.41;;;18.19;75.42
78667;BME280;67983;59.830;30.198;2023-06-26T22:32:35;101240.53;;;18.16;75.55
78667;BME280;67983;59.830;30.198;2023-06-26T22:35:02;101236.16;;;18.15;75.62
78667;BME280;67983;59.830;30.198;2023-06-26T22:37:29;101235.28;;;18.15;75.58
78667;BME280;67983;59.830;30.198;2023-06-26T22:39:56;101230.06;;;18.13;75.55
78667;BME280;67983;59.830;30.198;2023-06-26T22:42:23;101232.75;;;18.13;75.62
78667;BME280;67983;59.830;30.198;2023-06-26T22:44:51;101229.34;;;18.11;75.76
78667;BME280;67983;59.830;30.198;2023-06-26T22:47:22;101234.88;;;18.10;75.43
78667;BME280;67983;59.830;30.198;2023-06-26T22:49:51;101225.97;;;18.09;75.65
78667;BME280;67983;59.830;30.198;2023-06-26T22:52:18;101221.59;;;18.08;75.68
78667;BME280;67983;59.830;30.198;2023-06-26T22:54:45;101222.44;;;18.09;75.65
78667;BME280;67983;59.830;30.198;2023-06-26T22:57:12;101227.81;;;18.09;75.81
78667;BME280;67983;59.830;30.198;2023-06-26T22:59:39;101217.19;;;18.07;75.72
78667;BME280;67983;59.830;30.198;2023-06-26T23:02:06;101223.41;;;18.08;75.82
78667;BME280;67983;59.830;30.198;2023-06-26T23:04:34;101225.25;;;18.07;75.78
78667;BME280;67983;59.830;30.198;2023-06-26T23:07:02;101223.53;;;18.06;75.62
78667;BME280;67983;59.830;30.198;2023-06-26T23:09:30;101227.06;;;18.07;75.55
78667;BME280;67983;59.830;30.198;2023-06-26T23:11:58;101229.75;;;18.07;75.49
78667;BME280;67983;59.830;30.198;2023-06-26T23:14:25;101227.34;;;18.04;75.55
78667;BME280;67983;59.830;30.198;2023-06-26T23:16:55;101229.47;;;18.00;75.62
78667;BME280;67983;59.830;30.198;2023-06-26T23:19:31;101227.06;;;17.97;75.49
78667;BME280;67983;59.830;30.198;2023-06-26T23:21:59;101239.91;;;17.94;75.40
78667;BME280;67983;59.830;30.198;2023-06-26T23:24:28;101240.16;;;17.90;75.48
78667;BME280;67983;59.830;30.198;2023-06-26T23:27:01;101244.09;;;17.86;75.47
78667;BME280;67983;59.830;30.198;2023-06-26T23:29:29;101242.53;;;17.84;75.51
78667;BME280;67983;59.830;30.198;2023-06-26T23:31:56;101248.19;;;17.81;75.27
78667;BME280;67983;59.830;30.198;2023-06-26T23:34:24;101249.31;;;17.78;75.35
78667;BME280;67983;59.830;30.198;2023-06-26T23:36:51;101237.13;;;17.74;75.47
78667;BME280;67983;59.830;30.198;2023-06-26T23:39:20;101240.78;;;17.73;75.65
78667;BME280;67983;59.830;30.198;2023-06-26T23:41:52;101236.69;;;17.69;75.82
78667;BME280;67983;59.830;30.198;2023-06-26T23:44:19;101244.00;;;17.67;75.56
78667;BME280;67983;59.830;30.198;2023-06-26T23:46:47;101246.97;;;17.64;75.88
78667;BME280;67983;59.830;30.198;2023-06-26T23:49:15;101242.56;;;17.63;75.78
78667;BME280;67983;59.830;30.198;2023-06-26T23:51:42;101240.03;;;17.61;75.64
78667;BME280;67983;59.830;30.198;2023-06-26T23:54:09;101244.50;;;17.61;75.84
78667;BME280;67983;59.830;30.198;2023-06-26T23:56:42;101242.09;;;17.58;75.98
78667;BME280;67983;59.830;30.198;2023-06-26T23:59:11;101249.44;;;17.56;75.87
